Simcha — PE7688 — position and weather

sailwx.info

Track history (hours):
 
Tides and Currents Weather Stations Pressure Air Temp Water Temp Dewpoint Dewpoint Depression Visibility Wind Speed Wind Dir Waves Ship Positions

Simcha

Last reported at 2015-May-24 17:33 UTC. Time now 2015-May-25 13:23 UTC.
Position N 51°14' E 006°44'.

Length 110 m.

Type: Ship. MMSI: 244780014.

Date/timePositionNaut miles runAvg speedWind from/ knotsBaromVisibWave heightAir tempDewpointWater temp
2015-May-24 17:33N 51°14' E 006°44'6 5.6
2015-May-24 16:32N 51°09' E 006°50'15 6.7
2015-May-24 14:14N 50°55' E 006°58'115 4.2
2015-May-23 10:28N 49°13' E 008°23'7 5.6
2015-May-23 09:15N 49°07' E 008°22'30 8.0
2015-May-23 05:33N 48°42' E 007°56'  
2015-May-20 00:13N 48°41' E 007°55'25 4.4
2015-May-19 18:32N 49°01' E 008°18'5 5.5
2015-May-19 17:33N 49°06' E 008°22'6 5.5
2015-May-19 16:32N 49°12' E 008°23'  
2015-May-15 05:22N 50°55' E 006°58'16 1.5
2015-May-14 18:28N 51°10' E 006°48'3 3.4
2015-May-14 17:33N 51°12' E 006°44'  
Track history (hours):
 
Tides and Currents Weather Stations Pressure Air Temp Water Temp Dewpoint Dewpoint Depression Visibility Wind Speed Wind Dir Waves Ship Positions

Simcha

Last reported at 2015-May-24 17:33 UTC. Time now 2015-May-25 13:23 UTC.
Position N 51°14' E 006°44'.

Length 110 m.

Type: Ship. MMSI: 244780014.

Date/timePositionNaut miles runAvg speedWind from/ knotsBaromVisibWave heightAir tempDewpointWater temp
2015-May-24 17:33N 51°14' E 006°44'6 5.6
2015-May-24 16:32N 51°09' E 006°50'15 6.7
2015-May-24 14:14N 50°55' E 006°58'115 4.2
2015-May-23 10:28N 49°13' E 008°23'7 5.6
2015-May-23 09:15N 49°07' E 008°22'30 8.0
2015-May-23 05:33N 48°42' E 007°56'  
2015-May-20 00:13N 48°41' E 007°55'25 4.4
2015-May-19 18:32N 49°01' E 008°18'5 5.5
2015-May-19 17:33N 49°06' E 008°22'6 5.5
2015-May-19 16:32N 49°12' E 008°23'  
2015-May-15 05:22N 50°55' E 006°58'16 1.5
2015-May-14 18:28N 51°10' E 006°48'3 3.4
2015-May-14 17:33N 51°12' E 006°44'  

Dump ship's entire track history